KHTS

Tri-State / Milton J Ferguson Field Airport

Huntington, West Virginia, USA
METAR KHTS 180051Z VRB05KT 10SM CLR 12/03 A3031 RMK AO2 SLP265 T01170028
Observed Flight Rules
Oct-18 @ 00:51 UTC (30 minutes ago) Visual Flight Rules
Wind Visibility Clouds
Variable at 5 knots 10 miles
  • Clear skies
Temperatures Readings
Current 12°C / 54°F
Dewpoint 3°C / 37°F
Humidity 54%
Altimeter 30.31" Hg
Pressure 1026.5 hPa
Elevation 254
METAR KHTS 180051Z VRB05KT 10SM CLR 12/03 A3031 RMK AO2 SLP265 T01170028
Observed Flight Rules
Oct-18 @ 00:51 UTC
(30 minutes ago)
VFR
Wind Visibility
Variable at 5 knots 10 miles
Clouds
  • Clear skies
Temperature Dewpoint
12°C / 54°F 3°C / 37°F
Humidity Altimeter Pressure
54% 30.31" Hg 1026.5 hPa